Time;durP1;ratioP1;P1;durP2;ratioP2;P2;SDS_P1;SDS_P2;PMS_P1;PMS_P2;Temp;Humidity;BMP_temperature;BMP_pressure;BME280_temperature;BME280_humidity;BME280_pressure;Samples;Min_cycle;Max_cycle;Signal;HPM_P1;HPM_P2
2022/05/16 00:03:34;;;;;;;4.82;2.15;;;;;;;17.13;72.81;100228.31;20771050;28;20060;-72
2022/05/16 00:13:35;;;;;;;5.28;2.42;;;;;;;16.76;75.79;100233.53;20779302;28;20050;-72
2022/05/16 00:23:37;;;;;;;5.05;2.38;;;;;;;16.58;76.44;100235.16;20779146;28;20115;-72
2022/05/16 00:33:39;;;;;;;4.75;2.75;;;;;;;16.48;74.75;100236.47;20777634;28;20072;-72
2022/05/16 00:43:58;;;;;;;5.47;2.80;;;;;;;16.61;73.91;100241.16;20778128;28;20604;-72
2022/05/16 00:54:14;;;;;;;4.38;2.42;;;;;;;16.49;75.43;100241.72;20777718;28;20052;-73
2022/05/16 01:14:54;;;;;;;9.80;2.92;;;;;;;16.15;77.24;100237.84;20782297;28;20120;-72
2022/05/16 01:24:59;;;;;;;6.20;3.13;;;;;;;16.05;79.45;100231.22;20792315;28;20467;-72
2022/05/16 01:35:01;;;;;;;7.60;2.90;;;;;;;16.04;79.12;100218.91;20789847;28;20046;-72
2022/05/16 01:45:03;;;;;;;5.05;2.83;;;;;;;16.04;79.21;100213.63;20789613;28;20116;-72
2022/05/16 01:55:05;;;;;;;5.70;3.10;;;;;;;15.98;80.44;100205.97;20787498;28;20042;-72
2022/05/16 02:05:12;;;;;;;6.63;3.40;;;;;;;15.86;81.20;100219.69;20786262;28;20046;-72
2022/05/16 02:15:18;;;;;;;8.38;3.45;;;;;;;15.68;81.42;100218.63;20787019;28;20041;-73
2022/05/16 02:25:20;;;;;;;10.07;3.45;;;;;;;15.43;81.26;100226.63;20785149;28;20057;-72
2022/05/16 02:35:24;;;;;;;7.82;3.78;;;;;;;15.37;81.37;100232.09;20787832;28;20072;-73
2022/05/16 02:45:27;;;;;;;8.43;3.05;;;;;;;15.16;82.59;100223.25;20786787;28;20145;-72
2022/05/16 02:55:31;;;;;;;5.72;3.33;;;;;;;15.05;82.69;100234.19;20782698;28;20445;-73
2022/05/16 03:05:33;;;;;;;7.37;3.40;;;;;;;15.08;84.19;100236.69;20778803;28;20085;-73
2022/05/16 03:15:34;;;;;;;7.18;3.42;;;;;;;15.11;83.82;100247.13;20783283;28;20100;-72
2022/05/16 03:25:36;;;;;;;6.05;3.72;;;;;;;15.05;84.81;100246.50;20782063;28;20088;-72
2022/05/16 03:35:37;;;;;;;5.65;3.67;;;;;;;14.99;84.49;100239.66;20779973;28;20104;-72
2022/05/16 03:45:40;;;;;;;6.10;3.60;;;;;;;14.86;85.68;100254.22;20781357;28;20100;-72
2022/05/16 03:55:41;;;;;;;6.07;3.58;;;;;;;14.94;85.86;100259.22;20781924;28;20391;-72
2022/05/16 04:05:43;;;;;;;7.45;3.72;;;;;;;14.95;85.68;100267.09;20778198;28;20045;-72
2022/05/16 04:15:44;;;;;;;9.25;3.80;;;;;;;15.38;85.18;100265.50;20911399;23;20121;-70
2022/05/16 04:25:46;;;;;;;8.23;3.60;;;;;;;15.57;83.31;100261.25;20942293;28;20098;-68
2022/05/16 04:35:47;;;;;;;6.28;3.83;;;;;;;15.94;83.11;100270.38;20940435;28;20056;-68
2022/05/16 04:45:49;;;;;;;7.25;3.45;;;;;;;16.29;80.91;100270.72;20942997;28;20049;-68
2022/05/16 04:55:50;;;;;;;8.32;3.83;;;;;;;16.47;80.77;100267.31;20958611;28;20053;-68
2022/05/16 05:05:53;;;;;;;6.65;4.07;;;;;;;16.41;82.74;100283.44;20956677;28;20119;-68
2022/05/16 05:16:10;;;;;;;8.85;3.72;;;;;;;16.55;82.53;100289.00;20951869;28;20044;-68
2022/05/16 05:26:12;;;;;;;7.93;4.47;;;;;;;16.72;82.27;100300.69;20953110;28;20650;-68
2022/05/16 05:36:14;;;;;;;10.05;4.00;;;;;;;16.93;82.57;100308.56;20953791;28;20098;-68
2022/05/16 05:46:16;;;;;;;7.68;4.22;;;;;;;17.46;81.35;100320.34;20952994;28;20056;-68
2022/05/16 05:56:17;;;;;;;6.35;4.00;;;;;;;18.10;79.65;100333.25;20951451;28;20049;-69
2022/05/16 06:06:19;;;;;;;8.00;4.35;;;;;;;18.30;80.32;100339.38;20949354;28;20077;-69
2022/05/16 06:16:21;;;;;;;12.32;4.32;;;;;;;18.40;80.50;100351.28;20950651;28;20378;-68
2022/05/16 06:26:23;;;;;;;6.88;4.20;;;;;;;19.01;79.76;100348.22;20946380;28;20478;-68
2022/05/16 06:36:24;;;;;;;7.70;3.95;;;;;;;19.62;78.62;100358.28;20947982;28;20044;-69
2022/05/16 06:46:26;;;;;;;7.80;4.05;;;;;;;19.63;79.75;100372.44;20947852;28;20115;-69
2022/05/16 06:56:27;;;;;;;7.30;3.55;;;;;;;19.62;81.22;100386.66;20947369;28;20049;-69
2022/05/16 07:06:29;;;;;;;6.82;3.85;;;;;;;19.87;80.59;100394.16;20935239;28;20042;-69
2022/05/16 07:16:30;;;;;;;9.02;4.72;;;;;;;20.40;78.72;100392.97;20936685;28;20045;-69
2022/05/16 07:36:52;;;;;;;8.38;4.07;;;;;;;21.38;76.10;100400.63;20930167;28;20504;-69
2022/05/16 07:46:59;;;;;;;8.73;4.10;;;;;;;21.57;75.97;100405.69;20931577;28;20095;-69
2022/05/16 07:57:02;;;;;;;9.35;4.53;;;;;;;21.73;76.28;100422.44;20935249;28;20547;-69
2022/05/16 08:07:04;;;;;;;6.88;4.20;;;;;;;21.94;76.12;100430.91;20932165;28;20103;-69
2022/05/16 08:17:06;;;;;;;10.48;4.40;;;;;;;22.32;68.21;100427.66;20933501;28;20056;-69
2022/05/16 08:27:07;;;;;;;8.90;3.70;;;;;;;22.74;60.42;100430.22;20933902;28;20057;-69
2022/05/16 08:47:47;;;;;;;11.50;4.03;;;;;;;23.86;59.12;100443.16;20912665;28;20048;-69
2022/05/16 08:57:59;;;;;;;10.23;4.00;;;;;;;23.94;58.39;100451.50;20933348;28;20507;-69
2022/05/16 09:08:01;;;;;;;10.18;3.63;;;;;;;24.49;56.74;100443.09;20930821;28;20528;-69
2022/05/16 09:18:24;;;;;;;10.93;3.45;;;;;;;24.72;51.45;100454.78;20932487;28;20459;-69
2022/05/16 09:28:35;;;;;;;10.85;3.33;;;;;;;25.02;51.43;100461.50;20929146;28;20064;-68
2022/05/16 09:38:38;;;;;;;6.90;3.00;;;;;;;25.05;50.89;100480.00;20939742;28;20493;-68
2022/05/16 09:48:39;;;;;;;10.03;2.43;;;;;;;25.50;47.57;100489.13;20945142;28;20483;-67
2022/05/16 09:58:51;;;;;;;6.05;2.30;;;;;;;24.85;48.54;100518.16;20945379;28;20048;-67
2022/05/16 10:08:52;;;;;;;5.60;1.90;;;;;;;24.56;49.94;100538.03;20943761;28;20052;-68
2022/05/16 10:18:57;;;;;;;16.95;2.80;;;;;;;24.57;52.26;100571.03;20943853;28;20040;-67
2022/05/16 10:29:06;;;;;;;13.77;2.78;;;;;;;24.33;53.16;100586.97;20942420;28;20049;-68
2022/05/16 10:39:14;;;;;;;11.05;2.45;;;;;;;23.58;56.40;100610.81;20941073;28;20049;-67
2022/05/16 10:49:21;;;;;;;9.20;2.20;;;;;;;22.58;61.95;100650.16;20939167;28;20076;-67
2022/05/16 10:59:22;;;;;;;10.07;2.03;;;;;;;21.18;70.81;100695.56;20938521;28;20139;-67
2022/05/16 11:09:43;;;;;;;8.90;2.85;;;;;;;19.28;91.41;100691.06;20938419;28;20052;-67
2022/05/16 11:20:04;;;;;;;8.35;3.08;;;;;;;18.71;100.00;100684.84;20938551;28;20052;-68
2022/05/16 11:30:28;;;;;;;8.68;3.15;;;;;;;18.62;100.00;100680.75;20937661;28;20086;-69
2022/05/16 11:40:51;;;;;;;7.45;3.25;;;;;;;19.61;100.00;100674.47;20936911;28;20448;-69
2022/05/16 11:51:43;;;;;;;8.63;3.20;;;;;;;19.88;100.00;100672.22;20936443;28;20409;-67
2022/05/16 12:01:47;;;;;;;8.23;2.92;;;;;;;20.63;97.92;100652.44;20880561;28;20409;-67
2022/05/16 12:12:12;;;;;;;7.90;2.13;;;;;;;20.14;92.56;100649.66;20931884;28;20138;-67
2022/05/16 12:22:18;;;;;;;;;;;;;;;20.29;93.31;100634.72;20932416;28;20053;-68
2022/05/16 12:32:42;;;;;;;3.95;1.83;;;;;;;20.39;91.28;100634.16;20934474;28;20003;-67
2022/05/16 12:43:02;;;;;;;6.40;2.10;;;;;;;20.77;90.43;100639.25;20930987;28;20061;-67
2022/05/16 12:53:25;;;;;;;6.07;2.00;;;;;;;21.44;86.69;100618.69;20928725;28;20553;-67
2022/05/16 13:03:44;;;;;;;5.82;2.00;;;;;;;22.01;84.82;100614.41;20931516;28;20520;-67
2022/05/16 13:14:01;;;;;;;5.70;1.73;;;;;;;22.29;76.77;100607.47;20940682;28;20476;-67
2022/05/16 13:24:13;;;;;;;7.82;1.92;;;;;;;22.11;76.60;100593.41;20945340;28;20122;-67
2022/05/16 13:34:35;;;;;;;6.50;2.08;;;;;;;22.47;78.17;100595.66;20945350;28;20502;-68
2022/05/16 13:44:42;;;;;;;7.32;2.30;;;;;;;22.64;74.77;100575.91;20940267;28;20049;-67
2022/05/16 13:54:46;;;;;;;5.00;1.75;;;;;;;22.67;74.50;100586.41;20944646;28;20056;-69
2022/05/16 14:04:49;;;;;;;;;;;;;;;22.89;73.38;100579.72;20944588;28;20044;-68
2022/05/16 14:14:51;;;;;;;6.97;1.98;;;;;;;22.94;73.83;100566.91;20945350;28;19943;-67
2022/05/16 14:25:03;;;;;;;6.88;2.67;;;;;;;23.04;71.80;100579.59;20939931;28;20048;-68
2022/05/16 14:35:10;;;;;;;7.10;1.80;;;;;;;22.24;72.88;100582.88;20942346;28;20098;-67
2022/05/16 14:45:15;;;;;;;5.75;1.80;;;;;;;22.10;73.56;100588.16;20941017;28;20447;-67
2022/05/16 14:55:25;;;;;;;6.80;2.05;;;;;;;21.84;74.01;100579.91;20940713;28;20057;-68
2022/05/16 15:05:26;;;;;;;5.38;1.90;;;;;;;21.92;74.92;100584.78;20939329;28;20424;-67
2022/05/16 15:15:28;;;;;;;7.43;1.98;;;;;;;21.77;76.61;100584.75;20942746;28;20040;-68
2022/05/16 15:25:31;;;;;;;7.28;1.80;;;;;;;22.03;76.14;100582.31;20939327;28;20048;-67
2022/05/16 15:35:35;;;;;;;3.42;1.50;;;;;;;23.11;70.60;100573.84;20935576;28;20044;-68
2022/05/16 15:45:40;;;;;;;6.33;1.77;;;;;;;23.21;68.55;100565.13;20930723;28;20060;-67
2022/05/16 15:55:41;;;;;;;6.35;1.70;;;;;;;22.69;72.55;100576.47;20934817;28;20095;-68
2022/05/16 16:16:09;;;;;;;9.07;2.17;;;;;;;22.48;68.83;100569.81;20931334;28;20059;-65
2022/05/16 16:26:11;;;;;;;6.15;2.30;;;;;;;22.50;68.71;100566.09;20930333;28;20045;-66
2022/05/16 16:36:12;;;;;;;5.65;1.70;;;;;;;22.17;63.70;100573.50;20932591;28;20048;-66
2022/05/16 16:46:17;;;;;;;7.40;1.90;;;;;;;22.11;60.53;100580.09;20941109;28;20575;-66
2022/05/16 17:06:39;;;;;;;4.18;1.73;;;;;;;22.42;62.49;100587.09;20948283;28;20048;-67
2022/05/16 17:16:41;;;;;;;5.13;1.90;;;;;;;22.20;63.69;100592.00;20946964;28;20045;-66
2022/05/16 17:26:42;;;;;;;8.40;2.20;;;;;;;22.11;66.09;100606.75;20943772;28;20529;-67
2022/05/16 17:36:46;;;;;;;6.95;2.08;;;;;;;21.90;68.28;100626.69;20945274;28;20040;-67
2022/05/16 17:46:49;;;;;;;7.25;2.72;;;;;;;21.78;68.92;100642.44;20938999;28;20055;-69
2022/05/16 17:56:52;;;;;;;5.55;1.92;;;;;;;22.21;66.34;100647.06;20942399;28;20095;-69
2022/05/16 18:06:53;;;;;;;6.32;2.13;;;;;;;22.22;68.31;100667.44;20941089;28;20045;-69
2022/05/16 18:16:56;;;;;;;5.40;2.40;;;;;;;22.04;70.26;100682.72;20944474;28;20117;-69
2022/05/16 18:26:57;;;;;;;6.95;2.35;;;;;;;21.52;73.14;100707.91;20942113;28;20607;-68
2022/05/16 18:36:59;;;;;;;7.93;2.70;;;;;;;21.34;75.03;100718.72;20936385;28;20052;-68
2022/05/16 18:57:21;;;;;;;4.60;2.60;;;;;;;20.74;78.50;100748.50;20937039;28;20055;-67
2022/05/16 19:07:22;;;;;;;7.03;3.00;;;;;;;20.42;80.21;100755.50;20935264;28;20064;-69
2022/05/16 19:17:26;;;;;;;8.27;3.28;;;;;;;20.16;81.69;100760.31;20937956;28;20049;-68
2022/05/16 19:27:29;;;;;;;5.55;2.70;;;;;;;19.84;83.17;100771.66;20936481;28;20064;-69
2022/05/16 19:37:32;;;;;;;10.30;3.90;;;;;;;19.56;85.10;100785.38;20937071;28;20044;-69
2022/05/16 19:47:33;;;;;;;9.43;4.07;;;;;;;19.39;86.59;100788.78;20935287;28;20052;-69
2022/05/16 19:57:35;;;;;;;10.73;4.47;;;;;;;19.23;89.26;100805.44;20936004;28;20061;-69
2022/05/16 20:07:36;;;;;;;6.53;3.10;;;;;;;18.99;90.80;100806.53;20934091;28;20467;-69
2022/05/16 20:17:38;;;;;;;7.43;3.40;;;;;;;18.83;91.62;100808.09;20934360;28;20559;-68
2022/05/16 20:27:40;;;;;;;8.50;4.70;;;;;;;18.58;92.74;100822.38;20940018;28;20053;-68
2022/05/16 20:37:41;;;;;;;8.60;4.35;;;;;;;18.34;94.14;100834.00;20928754;28;20442;-69
2022/05/16 20:47:43;;;;;;;7.28;4.28;;;;;;;18.03;95.83;100837.91;20932360;28;20638;-69
2022/05/16 20:57:45;;;;;;;8.65;4.28;;;;;;;17.92;96.16;100833.03;20931931;28;20045;-70
2022/05/16 21:07:47;;;;;;;9.23;4.15;;;;;;;17.81;96.40;100829.06;20930441;28;20065;-69
2022/05/16 21:17:50;;;;;;;9.60;4.30;;;;;;;17.59;97.63;100835.16;20933628;28;20102;-70
2022/05/16 21:27:52;;;;;;;9.97;4.57;;;;;;;17.48;98.09;100829.38;20931594;28;20057;-70
2022/05/16 21:37:53;;;;;;;12.35;4.72;;;;;;;17.32;97.82;100830.88;20945293;28;20801;-70
2022/05/16 21:47:57;;;;;;;8.93;4.30;;;;;;;17.19;99.11;100828.69;20944695;28;20095;-70
2022/05/16 21:57:58;;;;;;;9.37;4.37;;;;;;;17.14;99.27;100829.75;20943775;28;20057;-68
2022/05/16 22:08:00;;;;;;;8.10;3.92;;;;;;;17.06;99.49;100829.19;20946910;28;20049;-69
2022/05/16 22:18:02;;;;;;;6.72;3.50;;;;;;;16.99;99.51;100828.53;20950948;28;20067;-68
2022/05/16 22:28:05;;;;;;;7.93;4.15;;;;;;;16.88;100.00;100836.84;20949628;28;20079;-70
2022/05/16 22:38:06;;;;;;;6.75;4.20;;;;;;;16.79;100.00;100831.03;20949009;28;20049;-69
2022/05/16 22:48:08;;;;;;;6.88;4.00;;;;;;;16.71;100.00;100830.38;20948308;28;20464;-69
2022/05/16 22:58:09;;;;;;;7.90;4.70;;;;;;;16.56;100.00;100829.13;20946712;28;20052;-69
2022/05/16 23:08:11;;;;;;;9.57;5.20;;;;;;;16.38;100.00;100842.03;20947924;28;20044;-68
2022/05/16 23:18:12;;;;;;;8.60;4.40;;;;;;;16.31;100.00;100845.78;20946037;28;20094;-68
2022/05/16 23:28:16;;;;;;;9.10;4.45;;;;;;;16.14;100.00;100848.97;20946170;28;20048;-68
2022/05/16 23:38:18;;;;;;;9.80;4.80;;;;;;;15.97;100.00;100850.41;20940833;28;20487;-68
2022/05/16 23:48:19;;;;;;;9.45;4.68;;;;;;;15.85;100.00;100841.94;20943239;28;20049;-69
2022/05/16 23:58:22;;;;;;;9.88;5.18;;;;;;;15.70;100.00;100842.41;20942117;28;20045;-69
